Time;durP1;ratioP1;P1;durP2;ratioP2;P2;SDS_P1;SDS_P2;PMS_P1;PMS_P2;Temp;Humidity;BMP_temperature;BMP_pressure;BME280_temperature;BME280_humidity;BME280_pressure;Samples;Min_cycle;Max_cycle;Signal;HPM_P1;HPM_P2
2020/12/15 05:03:05;;;;;;;25.80;11.27;;;5.20;99.90;;;;;;4574810;24;178733;-66
2020/12/15 05:05:32;;;;;;;22.80;10.87;;;5.20;99.90;;;;;;4656276;29;185961;-67
2020/12/15 05:08:01;;;;;;;23.37;11.43;;;5.20;99.90;;;;;;4657542;29;184848;-67
2020/12/15 05:10:38;;;;;;;34.30;12.03;;;5.20;99.90;;;;;;4655878;29;178202;-67
2020/12/15 05:13:25;;;;;;;18.20;11.30;;;5.20;99.90;;;;;;4662851;29;178571;-66
2020/12/15 05:15:56;;;;;;;49.67;14.50;;;5.20;99.90;;;;;;4663220;29;181932;-66
2020/12/15 05:18:41;;;;;;;18.87;11.73;;;5.20;99.90;;;;;;4648496;29;178531;-66
2020/12/15 05:21:16;;;;;;;24.50;12.10;;;5.10;99.90;;;;;;4662464;29;179107;-66
2020/12/15 05:23:51;;;;;;;16.77;11.73;;;5.10;99.90;;;;;;4663643;29;176696;-66
2020/12/15 05:26:24;;;;;;;41.43;12.20;;;5.10;99.90;;;;;;4645853;29;182561;-67
2020/12/15 05:29:06;;;;;;;17.63;10.57;;;5.00;99.90;;;;;;4660310;29;180923;-66
2020/12/15 05:31:40;;;;;;;51.50;15.13;;;5.00;99.90;;;;;;4646633;29;183200;-66
2020/12/15 05:34:36;;;;;;;29.97;12.57;;;5.00;99.90;;;;;;4640984;29;179273;-66
2020/12/15 05:37:35;;;;;;;21.93;11.83;;;5.00;99.90;;;;;;4651811;29;179686;-66
2020/12/15 05:40:20;;;;;;;21.83;11.10;;;4.90;99.90;;;;;;4648510;29;179661;-66
2020/12/15 05:43:09;;;;;;;31.03;13.27;;;5.00;99.90;;;;;;4647879;29;178450;-66
2020/12/15 05:45:35;;;;;;;56.93;15.07;;;4.90;99.90;;;;;;4648046;29;178126;-66
2020/12/15 05:48:04;;;;;;;19.03;12.20;;;4.90;99.90;;;;;;4647694;29;182484;-66
2020/12/15 05:50:31;;;;;;;21.03;12.03;;;4.90;99.90;;;;;;4650377;29;178170;-66
2020/12/15 05:52:59;;;;;;;70.50;17.60;;;4.90;99.90;;;;;;4644546;29;178038;-66
2020/12/15 05:55:26;;;;;;;39.57;13.87;;;4.90;99.90;;;;;;4650443;29;178148;-66
2020/12/15 05:57:53;;;;;;;166.70;22.80;;;4.90;99.90;;;;;;4656248;29;182901;-66
2020/12/15 06:00:25;;;;;;;19.07;12.20;;;4.90;99.90;;;;;;4649247;29;181562;-66
2020/12/15 06:03:05;;;;;;;18.77;11.50;;;4.80;99.90;;;;;;4648781;29;180769;-66
2020/12/15 06:05:33;;;;;;;13.80;11.93;;;4.90;99.90;;;;;;4632342;29;178050;-66
2020/12/15 06:08:01;;;;;;;66.13;16.27;;;4.80;99.90;;;;;;4633110;29;179461;-66
2020/12/15 06:10:29;;;;;;;91.53;18.40;;;4.90;99.90;;;;;;4649493;29;178144;-66
2020/12/15 06:12:57;;;;;;;56.10;14.57;;;4.90;99.90;;;;;;4649433;29;178085;-66
2020/12/15 06:15:24;;;;;;;47.23;15.13;;;4.90;99.90;;;;;;4650396;29;176980;-66
2020/12/15 06:18:01;;;;;;;32.63;12.57;;;4.80;99.90;;;;;;4656509;29;177997;-66
2020/12/15 06:20:33;;;;;;;76.73;17.27;;;4.80;99.90;;;;;;4666992;29;178848;-66
2020/12/15 06:23:01;;;;;;;16.03;11.83;;;4.90;99.90;;;;;;4647902;29;182076;-66
2020/12/15 06:25:30;;;;;;;31.90;13.73;;;4.80;99.90;;;;;;4644746;29;178032;-66
2020/12/15 06:28:00;;;;;;;102.93;20.47;;;4.80;99.90;;;;;;4646648;29;179235;-66
2020/12/15 06:30:32;;;;;;;15.33;11.77;;;4.80;99.90;;;;;;4646287;29;180021;-66
2020/12/15 06:32:59;;;;;;;22.03;12.90;;;4.80;99.90;;;;;;4645876;29;179101;-66
2020/12/15 06:35:26;;;;;;;26.53;13.13;;;4.90;99.90;;;;;;4646849;29;177937;-66
2020/12/15 06:37:52;;;;;;;29.03;13.10;;;4.90;99.90;;;;;;4645937;29;180473;-66
2020/12/15 06:40:18;;;;;;;73.70;18.00;;;4.80;99.90;;;;;;4646784;29;178291;-66
2020/12/15 06:42:49;;;;;;;42.10;14.23;;;4.80;99.90;;;;;;4645898;29;178425;-67
2020/12/15 06:45:21;;;;;;;49.73;14.87;;;4.80;99.90;;;;;;4646411;29;178511;-66
2020/12/15 06:47:55;;;;;;;44.57;14.70;;;4.90;99.90;;;;;;4644532;29;183655;-66
2020/12/15 06:50:22;;;;;;;18.57;12.60;;;4.80;99.90;;;;;;4646180;29;181163;-66
2020/12/15 06:52:48;;;;;;;128.27;23.03;;;4.80;99.90;;;;;;4643118;29;179908;-66
2020/12/15 06:55:14;;;;;;;37.63;15.50;;;4.80;99.90;;;;;;4643209;29;178499;-66
2020/12/15 06:57:41;;;;;;;20.93;13.07;;;4.90;99.90;;;;;;4646229;29;179658;-66
2020/12/15 07:00:12;;;;;;;100.53;18.47;;;4.80;99.90;;;;;;4645939;29;178816;-66
2020/12/15 07:02:43;;;;;;;17.63;12.70;;;4.90;99.90;;;;;;4644476;29;179127;-67
2020/12/15 07:05:24;;;;;;;33.93;14.27;;;4.80;99.90;;;;;;4647495;29;176450;-66
2020/12/15 07:07:55;;;;;;;96.03;19.77;;;4.90;99.90;;;;;;4643886;29;180305;-67
2020/12/15 07:10:25;;;;;;;108.63;21.23;;;4.90;99.90;;;;;;4646425;29;179650;-67
2020/12/15 07:12:52;;;;;;;158.00;23.67;;;4.80;99.90;;;;;;4644047;29;181708;-67
2020/12/15 07:15:19;;;;;;;111.60;19.80;;;4.90;99.90;;;;;;4645924;29;178567;-67
2020/12/15 07:17:47;;;;;;;129.03;22.63;;;4.90;99.90;;;;;;4646443;29;178859;-67
2020/12/15 07:20:15;;;;;;;66.37;16.87;;;4.90;99.90;;;;;;4645879;29;181252;-67
2020/12/15 07:22:41;;;;;;;301.10;37.50;;;4.90;99.90;;;;;;4645285;29;178410;-67
2020/12/15 07:25:09;;;;;;;72.97;17.30;;;4.80;99.90;;;;;;4645873;29;179057;-67
2020/12/15 07:27:37;;;;;;;115.40;21.57;;;4.90;99.90;;;;;;4645520;29;180074;-67
2020/12/15 07:30:12;;;;;;;124.77;22.93;;;4.90;99.90;;;;;;4646440;29;179174;-67
2020/12/15 07:32:39;;;;;;;93.07;19.10;;;4.90;99.90;;;;;;4645686;29;178691;-67
2020/12/15 07:35:13;;;;;;;45.23;15.77;;;4.90;99.90;;;;;;4645013;29;178085;-67
2020/12/15 07:37:42;;;;;;;84.03;17.57;;;5.00;99.90;;;;;;4643781;29;182609;-67
2020/12/15 07:40:11;;;;;;;41.97;14.67;;;4.90;99.90;;;;;;4645547;29;181651;-67
2020/12/15 07:42:39;;;;;;;23.63;13.40;;;4.90;99.90;;;;;;4644576;29;178757;-67
2020/12/15 07:45:10;;;;;;;35.90;14.97;;;5.00;99.90;;;;;;4645382;29;179014;-66
2020/12/15 07:47:41;;;;;;;172.50;25.43;;;5.00;99.90;;;;;;4645606;29;180234;-67
2020/12/15 07:50:09;;;;;;;28.20;13.90;;;5.00;99.90;;;;;;4644574;29;179075;-67
2020/12/15 07:52:39;;;;;;;141.77;21.03;;;4.90;99.90;;;;;;4643714;29;177964;-67
2020/12/15 07:55:05;;;;;;;87.10;19.23;;;5.00;99.90;;;;;;4647159;29;177430;-67
2020/12/15 07:57:33;;;;;;;224.67;32.50;;;5.00;99.90;;;;;;4645649;29;180143;-67
2020/12/15 08:00:15;;;;;;;46.03;15.80;;;5.00;99.90;;;;;;4644723;29;178506;-67
2020/12/15 08:02:43;;;;;;;155.50;22.40;;;5.00;99.90;;;;;;4640262;29;182552;-67
2020/12/15 08:05:19;;;;;;;174.63;25.93;;;5.10;99.90;;;;;;4645285;29;177993;-67
2020/12/15 08:07:46;;;;;;;48.63;14.90;;;5.10;99.90;;;;;;4643981;29;182518;-67
2020/12/15 08:10:14;;;;;;;24.60;12.57;;;5.30;99.90;;;;;;4645718;29;178314;-67
2020/12/15 08:12:42;;;;;;;258.13;34.00;;;5.50;99.90;;;;;;4643173;29;180466;-67
2020/12/15 08:15:10;;;;;;;40.30;15.13;;;5.10;99.90;;;;;;4645725;29;178455;-67
2020/12/15 08:17:39;;;;;;;21.33;13.83;;;5.10;99.90;;;;;;4644384;29;179242;-67
2020/12/15 08:20:07;;;;;;;19.17;13.20;;;5.10;99.90;;;;;;4648506;29;178149;-67
2020/12/15 08:22:39;;;;;;;33.90;14.40;;;5.20;99.90;;;;;;4648391;29;179096;-66
2020/12/15 08:25:08;;;;;;;66.50;17.83;;;5.20;99.90;;;;;;4648471;29;178068;-66
2020/12/15 08:27:48;;;;;;;68.60;17.03;;;5.20;99.90;;;;;;4646714;29;184010;-67
2020/12/15 08:30:20;;;;;;;125.80;22.27;;;5.20;99.90;;;;;;4648001;29;181811;-66
2020/12/15 08:32:49;;;;;;;137.83;23.23;;;5.20;99.90;;;;;;4647782;29;178210;-67
2020/12/15 08:35:23;;;;;;;36.33;15.07;;;5.20;99.90;;;;;;4646155;29;179057;-67
2020/12/15 08:37:55;;;;;;;28.77;14.27;;;5.10;99.90;;;;;;4647834;29;179973;-67
2020/12/15 08:40:22;;;;;;;15.53;12.10;;;5.30;99.90;;;;;;4646225;29;178785;-67
2020/12/15 08:42:48;;;;;;;246.40;85.43;;;5.20;99.90;;;;;;4646801;29;179108;-66
2020/12/15 08:45:18;;;;;;;123.43;30.70;;;5.20;99.90;;;;;;4648659;29;177194;-66
2020/12/15 08:47:48;;;;;;;82.13;19.57;;;5.30;99.90;;;;;;4648210;29;179485;-67
2020/12/15 08:50:15;;;;;;;28.97;15.23;;;5.30;99.90;;;;;;4647291;29;179532;-67
2020/12/15 08:52:43;;;;;;;35.33;15.10;;;5.20;99.90;;;;;;4644179;29;182430;-66
2020/12/15 08:55:13;;;;;;;41.10;15.63;;;5.30;99.90;;;;;;4646618;29;178793;-67
2020/12/15 08:57:40;;;;;;;19.17;13.63;;;5.30;99.90;;;;;;4647524;29;179361;-69
2020/12/15 09:00:14;;;;;;;22.30;13.90;;;5.30;99.90;;;;;;4647158;29;180129;-66
2020/12/15 09:02:42;;;;;;;18.33;12.93;;;5.40;99.90;;;;;;4644923;29;177951;-68
2020/12/15 09:05:14;;;;;;;23.60;14.03;;;5.30;99.90;;;;;;4647873;29;178031;-67
2020/12/15 09:07:47;;;;;;;16.80;12.40;;;5.30;99.90;;;;;;4647959;29;180085;-66
2020/12/15 09:10:17;;;;;;;15.10;12.77;;;5.50;99.90;;;;;;4647333;29;179049;-67
2020/12/15 09:12:45;;;;;;;23.67;13.90;;;6.00;99.90;;;;;;4646727;29;178000;-67
2020/12/15 09:15:11;;;;;;;24.50;14.40;;;5.40;99.90;;;;;;4647805;29;179079;-66
2020/12/15 09:17:39;;;;;;;15.80;13.40;;;5.40;99.90;;;;;;4641674;29;185397;-66
2020/12/15 09:20:08;;;;;;;15.60;12.90;;;5.50;99.90;;;;;;4645460;29;182052;-66
2020/12/15 09:22:38;;;;;;;19.60;13.57;;;5.40;99.90;;;;;;4647126;29;178079;-66
2020/12/15 09:25:11;;;;;;;20.47;13.70;;;5.50;99.90;;;;;;4650001;29;178467;-66
2020/12/15 09:27:37;;;;;;;17.83;13.60;;;5.50;99.90;;;;;;4649848;29;179302;-66
2020/12/15 09:30:04;;;;;;;19.03;13.37;;;5.50;99.90;;;;;;4648939;29;178088;-66
2020/12/15 09:32:34;;;;;;;16.73;13.30;;;5.50;99.90;;;;;;4650071;29;178404;-66
2020/12/15 09:35:00;;;;;;;14.57;12.90;;;5.60;99.90;;;;;;4650345;29;177087;-66
2020/12/15 09:37:26;;;;;;;17.63;13.07;;;5.60;99.90;;;;;;4649319;29;178716;-66
2020/12/15 09:39:53;;;;;;;16.17;13.37;;;5.00;99.90;;;;;;4649775;29;178724;-66
2020/12/15 09:42:20;;;;;;;15.33;12.63;;;5.60;99.90;;;;;;4647719;29;181160;-67
2020/12/15 09:44:47;;;;;;;15.53;13.20;;;5.60;99.90;;;;;;4649736;29;177943;-66
2020/12/15 09:47:14;;;;;;;17.93;13.40;;;5.70;99.90;;;;;;4649398;29;180411;-66
2020/12/15 09:49:41;;;;;;;15.10;12.00;;;5.60;99.90;;;;;;4649600;29;178218;-66
2020/12/15 09:52:07;;;;;;;16.03;13.30;;;5.60;99.90;;;;;;4649026;29;178488;-66
2020/12/15 09:54:33;;;;;;;14.63;12.83;;;5.70;99.90;;;;;;4649426;29;178937;-66
2020/12/15 09:57:00;;;;;;;15.87;12.53;;;5.70;99.90;;;;;;4649434;29;179340;-66
2020/12/15 09:59:26;;;;;;;15.37;12.90;;;5.70;99.90;;;;;;4650116;29;179168;-66
2020/12/15 10:01:53;;;;;;;15.67;13.10;;;5.70;99.90;;;;;;4648990;29;178332;-66
2020/12/15 10:04:19;;;;;;;15.97;13.70;;;5.80;99.90;;;;;;4649714;29;178439;-66
2020/12/15 10:06:47;;;;;;;15.40;12.67;;;5.70;99.90;;;;;;4647558;29;182573;-66
2020/12/15 10:09:15;;;;;;;15.37;12.40;;;5.80;99.90;;;;;;4649064;29;181477;-66
2020/12/15 10:11:45;;;;;;;16.33;13.10;;;5.80;99.90;;;;;;4649015;29;178029;-66
2020/12/15 10:14:11;;;;;;;19.03;12.87;;;5.90;99.90;;;;;;4649693;29;178903;-66
2020/12/15 10:16:37;;;;;;;21.13;13.97;;;5.80;99.90;;;;;;4649151;29;179268;-65
2020/12/15 10:19:04;;;;;;;29.07;14.53;;;5.90;99.90;;;;;;4649119;29;178881;-66
2020/12/15 10:21:30;;;;;;;18.03;14.50;;;5.90;99.90;;;;;;4649272;29;178036;-66
2020/12/15 10:23:56;;;;;;;20.23;12.73;;;5.90;99.90;;;;;;4649667;29;177166;-66
2020/12/15 10:26:24;;;;;;;17.43;13.20;;;5.90;99.90;;;;;;4648282;29;180543;-67
2020/12/15 10:28:52;;;;;;;14.97;12.67;;;6.00;99.90;;;;;;4648693;29;179138;-66
2020/12/15 10:31:19;;;;;;;17.70;13.50;;;6.00;99.90;;;;;;4647294;29;181208;-66
2020/12/15 10:33:45;;;;;;;23.70;13.90;;;5.90;99.90;;;;;;4648902;29;177891;-66
2020/12/15 10:36:13;;;;;;;21.03;13.43;;;6.00;99.90;;;;;;4630462;29;179733;-67
2020/12/15 10:38:40;;;;;;;30.70;13.97;;;6.00;99.90;;;;;;4641059;29;178711;-65
2020/12/15 10:41:07;;;;;;;27.97;14.00;;;6.10;99.90;;;;;;4646369;29;177991;-67
2020/12/15 10:43:33;;;;;;;19.50;13.60;;;6.00;99.90;;;;;;4644709;29;178433;-67
2020/12/15 10:46:01;;;;;;;17.33;12.57;;;5.90;99.90;;;;;;4645942;29;179920;-66
2020/12/15 10:48:27;;;;;;;14.17;12.30;;;5.70;99.90;;;;;;4646301;29;178175;-67
2020/12/15 10:50:54;;;;;;;16.63;13.40;;;6.10;99.90;;;;;;4646515;29;178147;-66
2020/12/15 10:53:20;;;;;;;17.27;12.83;;;6.10;99.90;;;;;;4644285;29;178593;-67
2020/12/15 10:55:51;;;;;;;15.43;12.67;;;6.10;99.90;;;;;;4644469;29;183444;-67
2020/12/15 10:58:18;;;;;;;17.03;12.60;;;6.20;99.90;;;;;;4645498;29;181638;-70
2020/12/15 11:00:44;;;;;;;16.30;12.13;;;6.10;99.90;;;;;;4646064;29;178047;-66
2020/12/15 11:03:11;;;;;;;16.90;11.60;;;6.10;99.90;;;;;;4645005;29;180037;-67
2020/12/15 11:05:37;;;;;;;16.50;13.13;;;6.20;99.90;;;;;;4643911;29;179840;-66
2020/12/15 11:08:03;;;;;;;16.90;13.83;;;6.20;99.90;;;;;;4641069;29;178433;-66
2020/12/15 11:10:30;;;;;;;15.23;12.83;;;6.30;99.90;;;;;;4650004;29;178535;-66
2020/12/15 11:13:00;;;;;;;15.23;12.50;;;6.10;99.90;;;;;;4666288;29;177132;-67
2020/12/15 11:15:26;;;;;;;14.80;12.00;;;6.20;99.90;;;;;;4655449;29;180303;-67
2020/12/15 11:17:52;;;;;;;15.40;13.00;;;6.20;99.90;;;;;;4648642;29;178398;-66
2020/12/15 11:20:19;;;;;;;15.73;12.87;;;6.30;99.90;;;;;;4647497;29;182329;-67
2020/12/15 11:22:45;;;;;;;14.90;12.77;;;6.30;99.90;;;;;;4648181;29;178790;-67
2020/12/15 11:25:11;;;;;;;17.90;14.17;;;6.30;99.90;;;;;;4647968;29;179335;-67
2020/12/15 11:27:37;;;;;;;14.97;12.77;;;6.20;99.90;;;;;;4648284;29;178997;-66
2020/12/15 11:30:04;;;;;;;16.53;13.93;;;6.30;99.90;;;;;;4648025;29;178523;-66
2020/12/15 11:32:30;;;;;;;18.93;13.43;;;6.30;99.90;;;;;;4648186;29;178791;-66
2020/12/15 11:34:57;;;;;;;14.70;12.10;;;6.40;99.90;;;;;;4648422;29;179325;-66
2020/12/15 11:37:23;;;;;;;15.23;12.53;;;6.40;99.90;;;;;;4648843;29;178295;-67
2020/12/15 11:39:49;;;;;;;18.63;12.67;;;6.30;99.90;;;;;;4648382;29;177923;-67
2020/12/15 11:42:16;;;;;;;16.33;13.47;;;6.50;99.90;;;;;;4647254;29;178044;-67
2020/12/15 11:44:54;;;;;;;24.90;13.43;;;6.40;99.90;;;;;;4646303;29;182653;-66
2020/12/15 11:47:22;;;;;;;17.93;14.60;;;6.40;99.90;;;;;;4647765;29;181733;-67
2020/12/15 11:49:48;;;;;;;16.67;13.50;;;6.50;99.90;;;;;;4642533;29;179494;-67
2020/12/15 11:52:36;;;;;;;16.10;13.20;;;6.50;99.90;;;;;;4643183;29;177938;-67
2020/12/15 11:55:02;;;;;;;17.03;13.63;;;6.50;99.90;;;;;;4647180;29;179689;-66
2020/12/15 11:57:29;;;;;;;22.27;18.83;;;6.60;99.90;;;;;;4647629;29;179793;-68
2020/12/15 11:59:55;;;;;;;24.97;19.90;;;6.50;99.90;;;;;;4648600;29;178034;-67
2020/12/15 12:02:21;;;;;;;17.57;14.00;;;6.50;99.90;;;;;;4647524;29;177180;-67
2020/12/15 12:04:50;;;;;;;23.90;14.07;;;6.60;99.90;;;;;;4648187;29;179335;-67
2020/12/15 12:07:17;;;;;;;16.93;13.83;;;6.60;99.90;;;;;;4648182;29;179496;-67
2020/12/15 12:09:43;;;;;;;73.17;50.17;;;6.60;99.90;;;;;;4646906;29;181440;-66
2020/12/15 12:12:09;;;;;;;26.80;20.10;;;6.50;99.90;;;;;;4647787;29;180522;-67
2020/12/15 12:14:35;;;;;;;33.43;23.50;;;6.70;99.90;;;;;;4647659;29;180489;-67
2020/12/15 12:17:18;;;;;;;20.63;18.00;;;6.70;99.90;;;;;;4639320;29;180268;-67
2020/12/15 12:19:44;;;;;;;25.67;20.70;;;6.70;99.90;;;;;;4648567;29;177912;-67
2020/12/15 12:22:11;;;;;;;94.87;60.37;;;6.70;99.90;;;;;;4647469;29;178105;-66
2020/12/15 12:24:38;;;;;;;94.17;59.53;;;6.70;99.90;;;;;;4648188;29;179959;-66
2020/12/15 12:27:04;;;;;;;176.97;103.90;;;6.70;99.90;;;;;;4649016;29;177929;-66
2020/12/15 12:29:30;;;;;;;35.87;20.37;;;6.80;99.90;;;;;;4647500;29;178549;-66
2020/12/15 12:31:57;;;;;;;39.40;28.23;;;6.90;99.90;;;;;;4647067;29;179392;-67
2020/12/15 12:34:23;;;;;;;18.53;13.83;;;6.80;99.90;;;;;;4646568;29;182678;-67
2020/12/15 12:36:49;;;;;;;27.13;18.33;;;6.80;99.90;;;;;;4647124;29;181587;-68
2020/12/15 12:39:16;;;;;;;19.70;15.13;;;6.90;99.90;;;;;;4647700;29;177884;-67
2020/12/15 12:41:42;;;;;;;61.73;36.53;;;6.80;99.90;;;;;;4645954;29;178796;-67
2020/12/15 12:44:13;;;;;;;30.30;22.23;;;6.80;99.90;;;;;;4630306;29;179203;-67
2020/12/15 12:46:40;;;;;;;19.90;15.37;;;6.80;99.90;;;;;;4637040;29;178315;-66
2020/12/15 12:49:07;;;;;;;18.83;15.20;;;6.90;99.90;;;;;;4648130;29;178821;-68
2020/12/15 12:51:33;;;;;;;22.37;13.90;;;6.80;99.90;;;;;;4647508;29;177244;-67
2020/12/15 12:53:59;;;;;;;22.13;17.60;;;6.80;99.90;;;;;;4646270;29;180004;-66
2020/12/15 12:56:25;;;;;;;17.60;14.30;;;6.90;99.90;;;;;;4647362;29;178864;-67
2020/12/15 12:58:52;;;;;;;17.57;14.50;;;6.90;99.90;;;;;;4646249;29;181675;-66
2020/12/15 13:01:22;;;;;;;18.83;14.40;;;6.80;99.90;;;;;;4646725;29;178133;-66
2020/12/15 13:03:48;;;;;;;17.17;13.60;;;6.80;99.90;;;;;;4642906;29;179453;-66
2020/12/15 13:06:15;;;;;;;16.43;13.60;;;6.80;99.90;;;;;;4645750;29;179126;-67
2020/12/15 13:08:42;;;;;;;19.67;16.17;;;6.80;99.90;;;;;;4648111;29;179721;-67
2020/12/15 13:11:21;;;;;;;18.93;14.83;;;6.90;99.90;;;;;;4649421;29;178039;-66
2020/12/15 13:13:48;;;;;;;22.77;13.37;;;6.80;99.90;;;;;;4649972;29;178888;-67
2020/12/15 13:16:14;;;;;;;18.63;14.17;;;6.80;99.90;;;;;;4650868;29;178079;-67
2020/12/15 13:18:41;;;;;;;17.20;14.17;;;6.90;99.90;;;;;;4649856;29;177983;-67
2020/12/15 13:21:07;;;;;;;16.00;13.23;;;6.90;99.90;;;;;;4650357;29;179455;-67
2020/12/15 13:23:33;;;;;;;29.43;14.57;;;6.80;99.90;;;;;;4647585;29;183055;-67
2020/12/15 13:26:00;;;;;;;17.53;13.33;;;6.90;99.90;;;;;;4649429;29;181654;-67
2020/12/15 13:28:27;;;;;;;21.40;14.73;;;6.80;99.90;;;;;;4649584;29;179698;-67
2020/12/15 13:30:54;;;;;;;18.80;13.70;;;6.90;99.90;;;;;;4650311;29;178097;-66
2020/12/15 13:33:21;;;;;;;16.83;13.37;;;6.90;99.90;;;;;;4648812;29;179799;-66
2020/12/15 13:35:47;;;;;;;17.63;14.47;;;6.70;99.90;;;;;;4649396;29;179258;-67
2020/12/15 13:38:13;;;;;;;17.17;13.90;;;6.80;99.90;;;;;;4649516;29;178652;-67
2020/12/15 13:40:40;;;;;;;19.10;14.53;;;6.80;99.90;;;;;;4649964;29;176598;-66
2020/12/15 13:43:06;;;;;;;21.03;15.07;;;6.80;99.90;;;;;;4649155;29;180770;-66
2020/12/15 13:45:32;;;;;;;17.53;13.87;;;6.90;99.90;;;;;;4649126;29;179699;-67
2020/12/15 13:48:14;;;;;;;16.77;13.63;;;6.90;99.90;;;;;;4645038;29;181894;-66
2020/12/15 13:50:40;;;;;;;18.00;14.00;;;6.80;99.90;;;;;;4649334;29;178027;-66
2020/12/15 13:53:06;;;;;;;16.93;14.30;;;6.80;99.90;;;;;;4662808;29;178110;-67
2020/12/15 13:55:33;;;;;;;22.17;14.73;;;6.90;99.90;;;;;;4661607;29;179412;-66
2020/12/15 13:57:59;;;;;;;19.00;13.87;;;6.80;99.90;;;;;;4649859;29;178498;-66
2020/12/15 14:00:25;;;;;;;16.47;13.40;;;6.80;99.90;;;;;;4650014;29;177994;-67
2020/12/15 14:02:52;;;;;;;16.13;13.50;;;7.20;99.90;;;;;;4649149;29;180190;-67
2020/12/15 14:05:18;;;;;;;17.27;13.27;;;6.80;99.90;;;;;;4650301;29;177515;-66
2020/12/15 14:07:44;;;;;;;18.23;13.43;;;6.80;99.90;;;;;;4652356;29;177988;-66
2020/12/15 14:10:10;;;;;;;16.20;12.27;;;6.80;99.90;;;;;;4667204;29;177966;-67
2020/12/15 14:12:37;;;;;;;23.10;12.80;;;6.80;99.90;;;;;;4664700;29;182520;-67
2020/12/15 14:15:03;;;;;;;19.50;13.00;;;6.70;99.90;;;;;;4666937;29;181671;-67
2020/12/15 14:17:29;;;;;;;18.37;12.53;;;6.80;99.90;;;;;;4666798;29;177959;-67
2020/12/15 14:19:56;;;;;;;16.20;12.80;;;6.80;99.90;;;;;;4667299;29;178920;-67
2020/12/15 14:22:22;;;;;;;17.80;12.70;;;6.90;99.90;;;;;;4666721;29;178781;-66
2020/12/15 14:24:58;;;;;;;17.63;13.20;;;6.80;99.90;;;;;;4665650;29;179326;-67
2020/12/15 14:27:24;;;;;;;21.80;13.20;;;6.80;99.90;;;;;;4680151;29;178057;-66
2020/12/15 14:29:50;;;;;;;16.37;13.10;;;6.80;99.90;;;;;;4667661;29;176948;-67
2020/12/15 14:32:17;;;;;;;17.07;13.40;;;6.80;99.90;;;;;;4666209;29;180764;-66
2020/12/15 14:34:43;;;;;;;19.77;13.23;;;6.80;99.90;;;;;;4666793;29;178595;-66
2020/12/15 14:37:09;;;;;;;16.87;13.07;;;6.80;99.90;;;;;;4665674;29;181180;-66
2020/12/15 14:39:35;;;;;;;17.03;13.20;;;6.70;99.90;;;;;;4666884;29;178070;-67
2020/12/15 14:42:03;;;;;;;16.60;12.93;;;6.70;99.90;;;;;;4666264;29;179988;-66
2020/12/15 14:44:30;;;;;;;16.77;12.90;;;6.70;99.90;;;;;;4661839;29;178160;-67
2020/12/15 14:46:57;;;;;;;22.83;13.70;;;6.80;99.90;;;;;;4649494;29;179326;-67
2020/12/15 14:49:23;;;;;;;28.17;18.57;;;6.70;99.90;;;;;;4646483;29;177961;-67
2020/12/15 14:51:50;;;;;;;17.80;13.77;;;6.80;99.90;;;;;;4627972;29;179405;-67
2020/12/15 14:54:19;;;;;;;18.23;13.70;;;6.70;99.90;;;;;;4639562;29;177638;-67
2020/12/15 14:56:47;;;;;;;16.70;13.30;;;6.60;99.90;;;;;;4645591;29;178530;-67
2020/12/15 14:59:13;;;;;;;17.23;13.07;;;6.80;99.90;;;;;;4645900;29;178309;-67
2020/12/15 15:01:39;;;;;;;19.03;14.03;;;6.70;99.90;;;;;;4643028;29;182913;-67
2020/12/15 15:04:06;;;;;;;23.43;13.13;;;6.60;99.90;;;;;;4645947;29;183155;-67
2020/12/15 15:06:37;;;;;;;40.27;14.97;;;6.70;99.90;;;;;;4646151;29;179186;-67
2020/12/15 15:09:04;;;;;;;19.10;13.33;;;6.70;99.90;;;;;;4646233;29;178352;-66
2020/12/15 15:11:30;;;;;;;53.43;17.13;;;6.70;99.90;;;;;;4642155;29;180030;-67
2020/12/15 15:13:56;;;;;;;24.27;12.87;;;6.70;99.90;;;;;;4644601;29;179549;-67
2020/12/15 15:16:23;;;;;;;36.20;15.20;;;6.70;99.90;;;;;;4646596;29;178614;-67
2020/12/15 15:19:07;;;;;;;44.20;16.00;;;6.70;99.90;;;;;;4649024;29;177598;-67
2020/12/15 15:21:35;;;;;;;95.73;19.77;;;6.60;99.90;;;;;;4648139;29;179805;-66
2020/12/15 15:24:01;;;;;;;21.63;13.90;;;6.60;99.90;;;;;;4647485;29;178953;-67
2020/12/15 15:26:27;;;;;;;17.37;13.50;;;6.60;99.90;;;;;;4646050;29;181346;-67
2020/12/15 15:28:54;;;;;;;18.93;13.70;;;6.60;99.90;;;;;;4649016;29;178391;-66
2020/12/15 15:31:20;;;;;;;138.77;24.97;;;6.60;99.90;;;;;;4651110;29;178161;-67
2020/12/15 15:33:49;;;;;;;20.53;12.97;;;6.60;99.90;;;;;;4659052;29;178105;-66
2020/12/15 15:36:15;;;;;;;17.90;12.23;;;6.60;99.90;;;;;;4650899;29;178014;-66
2020/12/15 15:38:42;;;;;;;16.07;12.57;;;6.40;99.90;;;;;;4650749;29;178325;-66
2020/12/15 15:41:08;;;;;;;46.37;15.33;;;6.60;99.90;;;;;;4648265;29;179415;-66
2020/12/15 15:43:35;;;;;;;22.83;15.37;;;6.50;99.90;;;;;;4649730;29;178686;-68
2020/12/15 15:46:02;;;;;;;25.27;14.97;;;6.60;99.90;;;;;;4648488;29;180337;-72
2020/12/15 15:48:28;;;;;;;22.80;12.47;;;6.50;99.90;;;;;;4646789;29;178092;-69
2020/12/15 15:50:55;;;;;;;13.90;12.20;;;6.50;99.90;;;;;;4646403;29;183117;-69
2020/12/15 15:53:21;;;;;;;35.40;15.30;;;6.40;99.90;;;;;;4648770;29;182546;-70
2020/12/15 15:55:47;;;;;;;116.47;22.20;;;6.50;99.90;;;;;;4646326;29;179240;-69
2020/12/15 15:58:13;;;;;;;112.80;21.47;;;6.40;99.90;;;;;;4650867;29;178950;-70
2020/12/15 16:00:40;;;;;;;32.13;14.10;;;6.40;99.90;;;;;;4648629;29;179695;-70
2020/12/15 16:03:07;;;;;;;37.30;15.40;;;6.40;99.90;;;;;;4648833;29;182245;-70
2020/12/15 16:05:33;;;;;;;19.73;13.00;;;6.40;99.90;;;;;;4648497;29;178878;-70
2020/12/15 16:08:00;;;;;;;74.40;17.90;;;6.40;99.90;;;;;;4650734;29;178560;-70
2020/12/15 16:10:26;;;;;;;37.10;14.60;;;6.40;99.90;;;;;;4650022;29;179001;-69
2020/12/15 16:12:52;;;;;;;56.33;16.57;;;6.40;99.90;;;;;;4648464;29;179008;-70
2020/12/15 16:15:19;;;;;;;37.77;14.93;;;6.30;99.90;;;;;;4649041;29;181385;-69
2020/12/15 16:17:46;;;;;;;18.00;13.37;;;6.40;99.90;;;;;;4650859;29;178416;-70
2020/12/15 16:20:14;;;;;;;16.80;12.93;;;6.40;99.90;;;;;;4650355;29;180300;-70
2020/12/15 16:22:41;;;;;;;16.53;11.87;;;6.40;99.90;;;;;;4650378;29;178799;-70
2020/12/15 16:25:08;;;;;;;30.20;13.53;;;6.40;99.90;;;;;;4650460;29;178621;-70
2020/12/15 16:27:34;;;;;;;27.40;14.10;;;6.50;99.90;;;;;;4648142;29;178354;-69
2020/12/15 16:30:00;;;;;;;43.30;15.53;;;6.40;99.90;;;;;;4646161;29;179816;-70
2020/12/15 16:32:26;;;;;;;24.63;13.67;;;6.30;99.90;;;;;;4650091;29;178420;-70
2020/12/15 16:34:53;;;;;;;19.53;12.83;;;6.40;99.90;;;;;;4649004;29;178208;-69
2020/12/15 16:37:19;;;;;;;53.73;16.03;;;6.40;99.90;;;;;;4648285;29;177966;-70
2020/12/15 16:39:45;;;;;;;29.27;13.50;;;6.40;99.90;;;;;;4646893;29;182801;-69
2020/12/15 16:42:12;;;;;;;24.57;13.93;;;6.20;99.90;;;;;;4644773;29;182801;-69
2020/12/15 16:44:38;;;;;;;17.70;12.73;;;6.40;99.90;;;;;;4647404;29;179183;-69
2020/12/15 16:47:04;;;;;;;24.57;12.83;;;6.40;99.90;;;;;;4645745;29;177954;-70
2020/12/15 16:49:32;;;;;;;39.70;15.50;;;6.30;99.90;;;;;;4647595;29;180793;-69
2020/12/15 16:51:59;;;;;;;30.93;13.30;;;6.30;99.90;;;;;;4643961;29;180331;-69
2020/12/15 16:54:25;;;;;;;62.70;16.03;;;6.30;99.90;;;;;;4641999;29;180257;-70
2020/12/15 16:56:52;;;;;;;15.20;12.57;;;6.30;99.90;;;;;;4648281;29;177327;-70
2020/12/15 16:59:34;;;;;;;45.60;15.33;;;6.40;99.90;;;;;;4647643;29;179803;-69
2020/12/15 17:02:01;;;;;;;20.23;12.27;;;6.40;99.90;;;;;;4645413;29;178572;-70
2020/12/15 17:04:27;;;;;;;23.37;14.17;;;6.20;99.90;;;;;;4647312;29;182237;-69
2020/12/15 17:06:55;;;;;;;21.77;12.87;;;6.30;99.90;;;;;;4657093;29;178294;-70
2020/12/15 17:09:21;;;;;;;25.67;13.00;;;6.20;99.90;;;;;;4656274;29;180292;-70
2020/12/15 17:11:49;;;;;;;15.47;12.77;;;6.30;99.90;;;;;;4661384;29;178791;-70
2020/12/15 17:14:16;;;;;;;89.67;19.13;;;6.30;99.90;;;;;;4648015;29;177963;-70
2020/12/15 17:16:42;;;;;;;15.77;12.53;;;6.40;99.90;;;;;;4642615;29;178685;-69
2020/12/15 17:19:08;;;;;;;26.63;13.10;;;6.40;99.90;;;;;;4645308;29;179932;-70
2020/12/15 17:21:36;;;;;;;17.13;12.60;;;6.40;99.90;;;;;;4645948;29;179135;-70
2020/12/15 17:24:05;;;;;;;95.33;20.27;;;6.30;99.90;;;;;;4645255;29;178324;-69
2020/12/15 17:26:31;;;;;;;42.87;14.17;;;5.50;99.90;;;;;;4645342;29;178974;-69
2020/12/15 17:28:58;;;;;;;104.80;20.97;;;6.40;99.90;;;;;;4644051;29;182628;-70
2020/12/15 17:31:25;;;;;;;37.33;14.67;;;6.60;99.90;;;;;;4646939;29;182820;-69
2020/12/15 17:33:51;;;;;;;26.77;13.73;;;6.30;99.90;;;;;;4644606;29;179548;-69